Time;durP1;ratioP1;P1;durP2;ratioP2;P2;SDS_P1;SDS_P2;PMS_P1;PMS_P2;Temp;Humidity;BMP_temperature;BMP_pressure;BME280_temperature;BME280_humidity;BME280_pressure;Samples;Min_cycle;Max_cycle;Signal;HPM_P1;HPM_P2
2023/07/05 00:01:30;;;;;;;8.35;4.88;;;16.40;99.90;;;;;;4935177;28;20039;-49
2023/07/05 00:03:55;;;;;;;8.02;4.68;;;16.40;99.90;;;;;;4952599;28;20087;-53
2023/07/05 00:06:21;;;;;;;10.55;4.97;;;16.30;99.90;;;;;;4951821;28;20047;-49
2023/07/05 00:08:47;;;;;;;9.55;4.93;;;16.30;99.90;;;;;;4952620;28;20039;-50
2023/07/05 00:11:13;;;;;;;8.93;4.55;;;16.30;99.90;;;;;;4953125;28;20094;-52
2023/07/05 00:13:40;;;;;;;16.17;5.55;;;16.30;99.90;;;;;;4952746;28;20044;-53
2023/07/05 00:16:06;;;;;;;9.65;4.95;;;16.20;99.90;;;;;;4952997;28;20564;-51
2023/07/05 00:18:32;;;;;;;10.55;4.82;;;16.20;99.90;;;;;;4952845;28;20498;-52
2023/07/05 00:21:05;;;;;;;14.07;5.47;;;16.20;99.90;;;;;;4952999;28;20039;-52
2023/07/05 00:23:32;;;;;;;10.98;5.50;;;16.20;99.90;;;;;;4952775;28;20039;-54
2023/07/05 00:25:58;;;;;;;11.60;5.95;;;16.30;99.90;;;;;;4952618;28;20033;-51
2023/07/05 00:28:24;;;;;;;11.23;5.35;;;16.20;99.90;;;;;;4952775;28;20027;-51
2023/07/05 00:30:50;;;;;;;11.35;5.65;;;16.30;99.90;;;;;;4952786;28;20067;-51
2023/07/05 00:33:16;;;;;;;10.32;5.70;;;16.20;99.90;;;;;;4952000;28;20407;-49
2023/07/05 00:35:52;;;;;;;12.57;6.57;;;16.30;99.90;;;;;;4952530;28;20075;-51
2023/07/05 00:38:19;;;;;;;10.75;6.10;;;16.30;99.90;;;;;;4952841;28;20419;-51
2023/07/05 00:40:45;;;;;;;13.40;6.55;;;16.30;99.90;;;;;;4935202;28;20039;-52
2023/07/05 00:43:13;;;;;;;11.70;6.25;;;16.30;99.90;;;;;;4952751;28;20038;-52
2023/07/05 00:45:59;;;;;;;14.20;7.00;;;16.30;99.90;;;;;;4952423;28;20047;-51
2023/07/05 00:48:35;;;;;;;13.25;7.20;;;16.30;99.90;;;;;;4952652;28;20039;-51
2023/07/05 00:51:17;;;;;;;15.35;7.90;;;16.30;99.90;;;;;;4952269;28;20128;-49
2023/07/05 00:53:44;;;;;;;13.80;8.30;;;16.20;99.90;;;;;;4952623;28;20047;-50
2023/07/05 00:56:20;;;;;;;12.82;8.27;;;16.10;99.90;;;;;;4952491;28;20031;-49
2023/07/05 00:58:46;;;;;;;14.90;8.43;;;16.10;99.90;;;;;;4952543;28;20079;-48
2023/07/05 01:01:12;;;;;;;14.85;9.23;;;16.10;99.90;;;;;;4952473;28;20110;-51
2023/07/05 01:03:39;;;;;;;16.05;9.30;;;16.00;99.90;;;;;;4943740;28;20047;-49
2023/07/05 01:06:06;;;;;;;15.57;10.13;;;16.00;99.90;;;;;;4952088;28;20054;-50
2023/07/05 01:08:32;;;;;;;19.08;9.98;;;15.90;99.90;;;;;;4952039;28;20051;-51
2023/07/05 01:11:14;;;;;;;13.55;9.50;;;16.00;99.90;;;;;;4952490;28;20031;-52
2023/07/05 01:13:46;;;;;;;17.77;11.77;;;15.90;99.90;;;;;;4952393;28;20040;-52
2023/07/05 01:16:42;;;;;;;17.23;11.05;;;15.80;99.90;;;;;;4952367;28;20035;-52
2023/07/05 01:19:31;;;;;;;14.30;10.38;;;15.80;99.90;;;;;;4955273;28;20387;-48
2023/07/05 01:22:09;;;;;;;17.90;9.90;;;15.70;99.90;;;;;;4955386;28;20045;-52
2023/07/05 01:24:35;;;;;;;17.77;10.85;;;15.70;99.90;;;;;;4955696;28;20058;-51
2023/07/05 01:27:23;;;;;;;15.15;10.85;;;15.70;99.90;;;;;;4955727;28;20047;-52
2023/07/05 01:30:07;;;;;;;17.00;11.30;;;15.70;99.90;;;;;;4955507;28;20118;-50
2023/07/05 01:32:53;;;;;;;17.98;10.85;;;15.60;99.90;;;;;;4954766;28;20043;-51
2023/07/05 01:35:34;;;;;;;16.15;11.18;;;15.60;99.90;;;;;;4955692;28;20047;-48
2023/07/05 01:38:03;;;;;;;19.77;12.07;;;15.60;99.90;;;;;;4955131;28;20118;-50
2023/07/05 01:40:29;;;;;;;18.70;11.60;;;15.60;99.90;;;;;;4955496;28;20090;-50
2023/07/05 01:42:58;;;;;;;15.80;12.40;;;15.60;99.90;;;;;;4955289;28;20039;-49
2023/07/05 01:45:34;;;;;;;17.33;12.13;;;15.60;99.90;;;;;;4955440;28;20097;-48
2023/07/05 01:48:16;;;;;;;19.60;12.23;;;15.50;99.90;;;;;;4955395;28;20090;-47
2023/07/05 01:50:50;;;;;;;17.52;12.50;;;15.50;99.90;;;;;;4955338;28;20043;-48
2023/07/05 01:53:24;;;;;;;22.88;13.40;;;15.60;99.90;;;;;;4955057;28;20564;-51
2023/07/05 01:56:04;;;;;;;20.17;12.75;;;15.50;99.90;;;;;;4955182;28;20051;-51
2023/07/05 01:58:35;;;;;;;19.27;13.27;;;15.50;99.90;;;;;;4955118;28;20034;-52
2023/07/05 02:01:03;;;;;;;21.15;13.48;;;15.60;99.90;;;;;;4954819;28;20118;-49
2023/07/05 02:03:31;;;;;;;19.27;13.50;;;15.50;99.90;;;;;;4954090;28;20062;-49
2023/07/05 02:05:57;;;;;;;21.75;14.02;;;15.40;99.90;;;;;;4955119;28;20402;-52
2023/07/05 02:08:27;;;;;;;20.50;13.75;;;15.40;99.90;;;;;;4954783;28;20130;-48
2023/07/05 02:10:53;;;;;;;19.45;13.25;;;15.30;99.90;;;;;;4938061;28;20497;-47
2023/07/05 02:13:20;;;;;;;20.02;13.90;;;15.50;99.90;;;;;;4955061;28;20039;-50
2023/07/05 02:15:48;;;;;;;19.27;10.23;;;15.40;99.90;;;;;;4954892;28;20042;-52
2023/07/05 02:18:15;;;;;;;22.73;11.05;;;15.40;99.90;;;;;;4938030;28;20046;-50
2023/07/05 02:20:41;;;;;;;19.50;14.32;;;15.40;99.90;;;;;;4972686;28;20046;-52
2023/07/05 02:23:07;;;;;;;21.40;16.40;;;15.50;99.90;;;;;;4973785;28;20434;-50
2023/07/05 02:25:35;;;;;;;18.38;13.73;;;15.50;99.90;;;;;;4974033;28;20042;-51
2023/07/05 02:28:05;;;;;;;20.60;15.15;;;15.30;99.90;;;;;;4973931;28;20058;-50
2023/07/05 02:30:30;;;;;;;22.15;15.10;;;15.30;99.90;;;;;;4973068;28;20487;-53
2023/07/05 02:32:56;;;;;;;28.52;16.48;;;15.40;99.90;;;;;;4973464;28;20089;-52
2023/07/05 02:35:21;;;;;;;23.98;12.73;;;15.20;99.90;;;;;;4973378;28;20039;-52
2023/07/05 02:37:47;;;;;;;21.50;16.00;;;15.30;99.90;;;;;;4973551;28;20053;-51
2023/07/05 02:40:13;;;;;;;22.45;16.42;;;15.40;99.90;;;;;;4973622;28;20039;-51
2023/07/05 02:42:38;;;;;;;21.08;16.75;;;15.20;99.90;;;;;;4973808;28;20077;-51
2023/07/05 02:45:05;;;;;;;20.98;16.30;;;15.20;99.90;;;;;;4970805;28;20047;-52
2023/07/05 02:47:30;;;;;;;24.23;17.27;;;15.40;99.90;;;;;;4973634;28;20495;-52
2023/07/05 02:49:56;;;;;;;21.67;12.25;;;15.40;99.90;;;;;;4973313;28;20059;-52
2023/07/05 02:52:21;;;;;;;21.25;16.10;;;15.30;99.90;;;;;;4973431;28;20038;-49
2023/07/05 02:54:47;;;;;;;23.65;17.20;;;15.30;99.90;;;;;;4969100;28;20123;-52
2023/07/05 02:57:13;;;;;;;18.17;16.17;;;15.50;99.90;;;;;;4937000;28;20047;-50
2023/07/05 02:59:38;;;;;;;22.70;13.15;;;15.50;99.90;;;;;;4953841;28;20031;-51
2023/07/05 03:02:05;;;;;;;25.58;18.30;;;15.50;99.90;;;;;;4953430;28;20046;-52
2023/07/05 03:04:30;;;;;;;20.80;13.25;;;15.50;99.90;;;;;;4954215;28;20043;-53
2023/07/05 03:06:56;;;;;;;20.35;17.15;;;15.30;99.90;;;;;;4953858;28;20417;-54
2023/07/05 03:09:22;;;;;;;22.92;17.85;;;15.60;99.90;;;;;;4954017;28;20615;-50
2023/07/05 03:11:48;;;;;;;21.13;16.55;;;15.50;99.90;;;;;;4953797;28;20138;-49
2023/07/05 03:14:13;;;;;;;19.45;17.00;;;15.40;99.90;;;;;;4955108;28;20054;-51
2023/07/05 03:16:39;;;;;;;24.35;18.25;;;15.40;99.90;;;;;;4973198;28;20050;-52
2023/07/05 03:19:05;;;;;;;23.15;18.45;;;15.50;99.90;;;;;;4972903;28;20041;-51
2023/07/05 03:21:30;;;;;;;20.38;17.08;;;15.50;99.90;;;;;;4963572;28;20094;-52
2023/07/05 03:23:56;;;;;;;18.55;16.45;;;15.60;99.90;;;;;;4953098;28;20126;-49
2023/07/05 03:26:22;;;;;;;21.25;16.83;;;15.50;99.90;;;;;;4953482;28;20086;-53
2023/07/05 03:28:47;;;;;;;21.38;17.23;;;15.50;99.90;;;;;;4953280;28;20057;-50
2023/07/05 03:31:16;;;;;;;22.08;16.38;;;15.60;99.90;;;;;;4953638;28;20035;-52
2023/07/05 03:33:42;;;;;;;20.77;16.77;;;15.60;99.90;;;;;;4953027;28;20051;-52
2023/07/05 03:36:13;;;;;;;19.60;14.70;;;15.70;99.90;;;;;;4920229;28;20097;-52
2023/07/05 03:38:39;;;;;;;17.35;12.63;;;15.60;99.90;;;;;;4952844;28;20031;-53
2023/07/05 03:41:17;;;;;;;18.65;12.98;;;15.60;99.90;;;;;;4952554;28;20084;-53
2023/07/05 03:43:44;;;;;;;14.60;11.18;;;15.80;99.90;;;;;;4952987;28;20031;-52
2023/07/05 03:46:12;;;;;;;12.88;10.13;;;15.90;99.90;;;;;;4961651;28;20070;-53
2023/07/05 03:48:40;;;;;;;13.25;10.70;;;15.90;99.90;;;;;;4935625;28;20043;-51
2023/07/05 03:51:07;;;;;;;13.95;9.90;;;15.70;99.90;;;;;;4959159;28;20039;-51
2023/07/05 03:53:35;;;;;;;12.75;6.35;;;15.90;99.90;;;;;;4952476;28;20046;-53
2023/07/05 03:56:03;;;;;;;11.90;8.45;;;15.70;99.90;;;;;;4953872;28;20046;-50
2023/07/05 03:58:29;;;;;;;11.63;6.47;;;15.80;99.90;;;;;;4936607;28;20443;-51
2023/07/05 04:01:14;;;;;;;9.77;5.70;;;15.90;99.90;;;;;;4953731;28;20037;-51
2023/07/05 04:03:44;;;;;;;8.57;4.07;;;15.80;99.90;;;;;;4952287;28;20090;-50
2023/07/05 04:06:10;;;;;;;8.63;5.05;;;15.80;99.90;;;;;;4953162;28;20039;-50
2023/07/05 04:08:36;;;;;;;7.38;3.88;;;15.70;99.90;;;;;;4952496;28;20039;-53
2023/07/05 04:11:02;;;;;;;9.95;4.38;;;15.90;99.90;;;;;;4952692;28;20129;-51
2023/07/05 04:13:27;;;;;;;7.47;4.20;;;15.70;99.90;;;;;;4952898;28;20077;-49
2023/07/05 04:16:11;;;;;;;8.73;4.55;;;15.70;99.90;;;;;;4952902;28;20106;-51
2023/07/05 04:18:38;;;;;;;5.78;3.90;;;15.60;99.90;;;;;;4962252;28;20027;-52
2023/07/05 04:21:05;;;;;;;7.10;3.78;;;15.50;99.90;;;;;;4971972;28;20133;-54
2023/07/05 04:23:31;;;;;;;10.90;3.97;;;15.30;99.90;;;;;;4952979;28;20077;-51
2023/07/05 04:26:11;;;;;;;7.15;3.58;;;15.20;99.90;;;;;;4952759;28;20039;-49
2023/07/05 04:28:38;;;;;;;8.30;3.40;;;15.10;99.90;;;;;;4952994;28;20046;-53
2023/07/05 04:31:07;;;;;;;7.68;4.78;;;14.80;99.90;;;;;;4952901;28;20043;-48
2023/07/05 04:33:33;;;;;;;7.07;3.30;;;14.80;99.90;;;;;;4934836;28;20065;-50
2023/07/05 04:35:59;;;;;;;8.15;5.00;;;14.70;99.90;;;;;;4953568;28;20027;-50
2023/07/05 04:38:26;;;;;;;6.78;4.93;;;14.70;99.90;;;;;;4953124;28;20407;-48
2023/07/05 04:40:53;;;;;;;9.70;4.43;;;14.70;99.90;;;;;;4970852;28;20081;-52
2023/07/05 04:43:19;;;;;;;7.03;4.03;;;14.60;99.90;;;;;;4956945;28;20047;-48
2023/07/05 04:45:52;;;;;;;8.55;5.57;;;14.60;99.90;;;;;;4967605;28;20046;-48
2023/07/05 04:48:19;;;;;;;7.47;5.22;;;14.60;99.90;;;;;;4957028;28;20125;-50
2023/07/05 04:50:48;;;;;;;8.65;4.63;;;14.50;99.90;;;;;;4971941;28;20057;-51
2023/07/05 04:53:14;;;;;;;7.45;5.28;;;14.60;99.90;;;;;;4938013;28;20395;-50
2023/07/05 04:55:47;;;;;;;8.55;5.40;;;14.60;99.90;;;;;;4956296;28;20042;-50
2023/07/05 04:58:14;;;;;;;7.83;5.03;;;14.60;99.90;;;;;;4961398;28;20035;-49
2023/07/05 05:00:40;;;;;;;7.18;4.80;;;14.60;99.90;;;;;;4963046;28;20052;-49
2023/07/05 05:03:06;;;;;;;9.43;5.10;;;14.50;99.90;;;;;;4960517;28;20117;-48
2023/07/05 05:05:32;;;;;;;9.13;4.72;;;14.60;99.90;;;;;;4962270;28;20403;-50
2023/07/05 05:07:57;;;;;;;7.20;4.75;;;14.50;99.90;;;;;;4965747;28;20039;-51
2023/07/05 05:10:23;;;;;;;8.80;5.32;;;14.50;99.90;;;;;;4968648;28;20109;-48
2023/07/05 05:12:49;;;;;;;7.95;4.10;;;14.50;99.90;;;;;;4975576;28;20054;-46
2023/07/05 05:15:14;;;;;;;8.75;4.72;;;14.50;99.90;;;;;;4975081;28;20483;-50
2023/07/05 05:17:40;;;;;;;10.80;4.75;;;14.60;99.90;;;;;;4975353;28;20450;-48
2023/07/05 05:20:07;;;;;;;8.55;4.72;;;14.70;99.90;;;;;;4962707;28;20046;-49
2023/07/05 05:22:33;;;;;;;6.80;4.50;;;14.70;99.90;;;;;;4974903;28;20050;-49
2023/07/05 05:24:59;;;;;;;6.78;4.60;;;14.70;99.90;;;;;;4974838;28;20043;-48
2023/07/05 05:27:24;;;;;;;7.35;4.45;;;14.60;99.90;;;;;;4938617;28;20050;-48
2023/07/05 05:29:50;;;;;;;7.55;4.40;;;14.70;99.90;;;;;;4938470;28;20031;-50
2023/07/05 05:32:16;;;;;;;6.65;3.65;;;14.70;99.90;;;;;;4955174;28;20047;-50
2023/07/05 05:34:41;;;;;;;7.20;4.78;;;14.60;99.90;;;;;;4956209;28;20051;-49
2023/07/05 05:37:07;;;;;;;8.13;4.53;;;14.60;99.90;;;;;;4938737;28;20039;-48
2023/07/05 05:39:34;;;;;;;7.47;4.30;;;14.70;99.90;;;;;;4966232;28;20070;-48
2023/07/05 05:41:59;;;;;;;8.90;3.45;;;14.70;99.90;;;;;;4938973;28;20071;-49
2023/07/05 05:44:25;;;;;;;7.63;4.72;;;14.70;99.90;;;;;;4955497;28;20093;-49
2023/07/05 05:46:51;;;;;;;7.80;4.53;;;14.70;99.90;;;;;;4955319;28;20043;-50
2023/07/05 05:49:16;;;;;;;9.05;4.30;;;14.70;99.90;;;;;;4955297;28;20487;-50
2023/07/05 05:51:42;;;;;;;7.90;4.30;;;14.70;99.90;;;;;;4955207;28;20054;-49
2023/07/05 05:54:08;;;;;;;6.18;4.00;;;14.80;99.90;;;;;;4958901;28;20117;-47
2023/07/05 05:56:33;;;;;;;7.47;4.20;;;14.80;99.90;;;;;;4974604;28;20054;-47
2023/07/05 05:58:59;;;;;;;7.55;4.13;;;14.90;99.90;;;;;;4974440;28;20402;-50
2023/07/05 06:01:25;;;;;;;7.07;3.10;;;14.90;99.90;;;;;;4937948;28;20031;-51
2023/07/05 06:03:50;;;;;;;8.65;4.20;;;15.00;99.90;;;;;;4953637;28;20075;-52
2023/07/05 06:06:16;;;;;;;5.43;3.70;;;15.00;99.90;;;;;;4954541;28;20051;-48
2023/07/05 06:08:42;;;;;;;7.47;3.83;;;15.10;99.90;;;;;;4954633;28;20035;-50
2023/07/05 06:11:07;;;;;;;8.52;4.25;;;15.00;99.90;;;;;;4954820;28;20170;-47
2023/07/05 06:13:33;;;;;;;6.70;4.43;;;14.90;99.90;;;;;;4954383;28;20039;-52
2023/07/05 06:16:01;;;;;;;7.68;4.47;;;14.90;99.90;;;;;;4955075;28;20036;-51
2023/07/05 06:18:27;;;;;;;8.25;4.45;;;14.90;99.90;;;;;;4954734;28;20424;-52
2023/07/05 06:20:53;;;;;;;6.80;3.08;;;14.90;99.90;;;;;;4954837;28;20555;-48
2023/07/05 06:23:20;;;;;;;7.43;4.15;;;14.90;99.90;;;;;;4954850;28;20067;-48
2023/07/05 06:25:47;;;;;;;6.20;3.95;;;15.00;99.90;;;;;;4954831;28;20043;-47
2023/07/05 06:28:14;;;;;;;7.57;4.20;;;15.00;99.90;;;;;;4937464;28;20390;-51
2023/07/05 06:30:40;;;;;;;7.18;4.65;;;15.00;99.90;;;;;;4937579;28;20039;-49
2023/07/05 06:33:06;;;;;;;7.72;4.13;;;15.00;99.90;;;;;;4953772;28;20038;-48
2023/07/05 06:35:32;;;;;;;7.97;2.55;;;15.00;99.90;;;;;;4954251;28;20083;-50
2023/07/05 06:37:58;;;;;;;5.53;3.60;;;15.00;99.90;;;;;;4954410;28;20050;-49
2023/07/05 06:40:24;;;;;;;7.30;3.75;;;15.10;99.90;;;;;;4936874;28;20053;-47
2023/07/05 06:42:49;;;;;;;6.70;3.33;;;15.10;99.90;;;;;;4953861;28;20035;-51
2023/07/05 06:45:15;;;;;;;5.97;2.88;;;15.10;99.90;;;;;;4952724;28;20043;-47
2023/07/05 06:47:41;;;;;;;6.35;3.05;;;15.10;99.90;;;;;;4953491;28;20043;-48
2023/07/05 06:50:08;;;;;;;6.38;3.10;;;15.20;99.90;;;;;;4953965;28;20066;-47
2023/07/05 06:52:34;;;;;;;5.07;3.00;;;15.20;99.90;;;;;;4953745;28;20081;-48
2023/07/05 06:55:00;;;;;;;5.28;3.03;;;15.20;99.90;;;;;;4953612;28;20039;-49
2023/07/05 06:57:26;;;;;;;7.53;3.22;;;15.20;99.90;;;;;;4955520;28;20126;-49
2023/07/05 06:59:51;;;;;;;6.70;3.10;;;15.20;99.90;;;;;;4953112;28;20479;-48
2023/07/05 07:02:17;;;;;;;5.15;2.90;;;15.10;99.90;;;;;;4952630;28;20078;-51
2023/07/05 07:04:43;;;;;;;6.03;3.13;;;14.90;99.90;;;;;;4936733;28;20470;-48
2023/07/05 07:07:08;;;;;;;5.75;3.33;;;14.80;99.90;;;;;;4936463;28;20408;-48
2023/07/05 07:09:34;;;;;;;6.22;3.83;;;14.70;99.90;;;;;;4953719;28;20043;-52
2023/07/05 07:12:00;;;;;;;6.20;2.47;;;14.50;99.90;;;;;;4934675;28;20039;-51
2023/07/05 07:14:26;;;;;;;5.80;3.60;;;14.40;99.90;;;;;;4926466;28;20043;-49
2023/07/05 07:16:52;;;;;;;6.05;2.90;;;14.20;99.90;;;;;;4945093;28;20070;-50
2023/07/05 07:19:17;;;;;;;7.43;2.70;;;14.10;99.90;;;;;;4943489;28;20043;-52
2023/07/05 07:21:44;;;;;;;5.15;2.30;;;13.80;99.90;;;;;;4944687;28;20050;-48
2023/07/05 07:24:10;;;;;;;7.03;2.10;;;13.70;99.90;;;;;;4943537;28;20082;-51
2023/07/05 07:26:36;;;;;;;6.82;1.42;;;13.40;99.90;;;;;;4943518;28;20039;-52
2023/07/05 07:29:02;;;;;;;5.82;1.60;;;13.10;99.90;;;;;;4943014;28;20055;-48
2023/07/05 07:31:31;;;;;;;5.95;1.42;;;12.90;99.90;;;;;;4943828;28;20043;-53
2023/07/05 07:34:00;;;;;;;3.45;1.50;;;12.70;99.90;;;;;;4943730;28;20085;-51
2023/07/05 07:36:27;;;;;;;4.43;1.50;;;12.60;99.90;;;;;;4943889;28;20114;-47
2023/07/05 07:38:55;;;;;;;3.63;1.40;;;12.50;99.90;;;;;;4926699;28;20122;-51
2023/07/05 07:41:20;;;;;;;3.78;1.50;;;12.40;99.90;;;;;;4943969;28;20047;-49
2023/07/05 07:43:49;;;;;;;3.47;1.20;;;12.40;99.90;;;;;;4942817;28;20094;-52
2023/07/05 07:46:16;;;;;;;2.58;0.80;;;12.50;99.90;;;;;;4943261;28;20074;-49
2023/07/05 07:48:46;;;;;;;3.83;1.27;;;12.40;99.90;;;;;;4943298;28;20039;-52
2023/07/05 07:51:11;;;;;;;4.55;0.77;;;12.40;99.90;;;;;;4943874;28;20039;-50
2023/07/05 07:53:37;;;;;;;2.95;0.77;;;12.40;99.90;;;;;;4943490;28;20035;-48
2023/07/05 07:56:12;;;;;;;3.45;1.00;;;12.40;99.90;;;;;;4943867;28;21004;-49
2023/07/05 07:58:38;;;;;;;4.47;0.82;;;12.50;99.90;;;;;;4942922;28;20038;-49
2023/07/05 08:01:32;;;;;;;2.92;1.00;;;12.40;99.90;;;;;;4943093;28;20043;-47
2023/07/05 08:04:00;;;;;;;5.03;1.40;;;12.50;99.90;;;;;;4940588;28;20074;-48
2023/07/05 08:06:43;;;;;;;4.20;1.10;;;12.40;99.90;;;;;;4943518;28;20065;-51
2023/07/05 08:09:12;;;;;;;5.43;1.40;;;12.50;99.90;;;;;;4949785;28;20487;-51
2023/07/05 08:11:39;;;;;;;5.60;1.15;;;12.40;99.90;;;;;;4944371;28;20103;-51
2023/07/05 08:14:05;;;;;;;5.03;1.65;;;12.50;99.90;;;;;;4943730;28;20110;-51
2023/07/05 08:16:31;;;;;;;4.53;1.23;;;12.50;99.90;;;;;;4942367;28;20039;-50
2023/07/05 08:18:57;;;;;;;7.18;1.50;;;12.50;99.90;;;;;;4943388;28;20031;-50
2023/07/05 08:21:23;;;;;;;6.57;2.22;;;12.40;99.90;;;;;;4943103;28;20356;-47
2023/07/05 08:23:49;;;;;;;5.25;1.25;;;12.40;99.90;;;;;;4926574;28;20039;-49
2023/07/05 08:26:15;;;;;;;5.35;1.60;;;12.30;99.90;;;;;;4942697;28;23922;-52
2023/07/05 08:28:41;;;;;;;9.48;1.50;;;12.20;99.90;;;;;;4945194;28;20042;-51
2023/07/05 08:31:08;;;;;;;5.18;2.10;;;12.20;99.90;;;;;;4944843;28;20043;-52
2023/07/05 08:33:35;;;;;;;6.90;2.35;;;12.20;99.90;;;;;;4946746;28;20082;-51
2023/07/05 08:36:28;;;;;;;5.63;1.50;;;12.30;99.90;;;;;;4952757;28;20046;-47
2023/07/05 08:38:55;;;;;;;6.97;2.60;;;12.20;99.90;;;;;;4953038;28;20074;-49
2023/07/05 08:41:42;;;;;;;9.82;2.60;;;12.40;99.90;;;;;;4956202;28;20462;-50
2023/07/05 08:44:55;;;;;;;10.23;3.42;;;12.40;99.90;;;;;;4950567;28;20038;-53
2023/07/05 08:47:44;;;;;;;8.25;1.88;;;12.40;99.90;;;;;;4876882;28;20125;-52
2023/07/05 08:50:14;;;;;;;10.75;3.58;;;12.30;99.90;;;;;;4952537;28;20035;-51
2023/07/05 08:52:45;;;;;;;12.75;3.28;;;12.20;99.90;;;;;;4956411;28;20545;-49
2023/07/05 08:55:15;;;;;;;12.75;2.60;;;12.30;99.90;;;;;;4950260;28;20050;-51
2023/07/05 08:57:53;;;;;;;13.55;4.38;;;12.40;99.90;;;;;;4955699;28;20202;-48
2023/07/05 09:00:30;;;;;;;20.00;4.50;;;12.40;99.90;;;;;;4947312;28;20494;-50
2023/07/05 09:02:56;;;;;;;19.00;5.00;;;12.60;99.90;;;;;;4946007;28;20094;-50
2023/07/05 09:05:37;;;;;;;18.80;5.30;;;12.60;99.90;;;;;;4946170;28;20475;-52
2023/07/05 09:08:11;;;;;;;21.40;3.53;;;12.40;99.90;;;;;;4946933;28;20066;-51
2023/07/05 09:10:44;;;;;;;27.15;6.38;;;12.50;99.90;;;;;;4928220;28;20051;-51
2023/07/05 09:13:22;;;;;;;21.65;4.10;;;12.50;99.90;;;;;;4946976;28;20380;-50
2023/07/05 09:16:00;;;;;;;21.90;5.68;;;12.40;99.90;;;;;;4943502;28;20127;-50
2023/07/05 09:19:01;;;;;;;16.77;3.65;;;12.50;99.90;;;;;;4947239;28;20039;-52
2023/07/05 09:21:32;;;;;;;21.35;5.30;;;12.50;99.90;;;;;;4893895;29;20029;-51
2023/07/05 09:24:06;;;;;;;20.58;4.72;;;12.60;99.90;;;;;;4936898;28;20554;-49
2023/07/05 09:26:45;;;;;;;17.30;4.63;;;12.50;99.90;;;;;;4945843;28;20046;-50
2023/07/05 09:29:31;;;;;;;17.33;4.90;;;12.50;99.90;;;;;;4946819;28;20043;-49
2023/07/05 09:32:07;;;;;;;16.33;2.92;;;12.70;99.90;;;;;;4945540;28;20050;-52
2023/07/05 09:34:48;;;;;;;14.00;2.92;;;12.60;99.90;;;;;;4950234;28;20051;-47
2023/07/05 09:37:19;;;;;;;10.85;3.03;;;12.70;99.90;;;;;;4946622;28;20039;-47
2023/07/05 09:40:04;;;;;;;20.92;4.60;;;12.60;99.90;;;;;;4945519;28;20035;-51
2023/07/05 09:42:36;;;;;;;;;;;12.50;99.90;;;;;;4946745;28;20055;-52
2023/07/05 09:45:02;;;;;;;15.13;4.07;;;12.80;99.90;;;;;;4946768;28;19925;-52
2023/07/05 09:47:28;;;;;;;18.83;4.95;;;12.90;99.90;;;;;;4946230;28;20043;-50
2023/07/05 09:49:53;;;;;;;15.45;4.47;;;12.80;99.90;;;;;;4946154;28;20118;-54
2023/07/05 09:52:23;;;;;;;14.23;3.97;;;12.90;99.90;;;;;;4947021;28;20170;-53
2023/07/05 09:54:52;;;;;;;20.70;4.82;;;12.90;99.90;;;;;;4928385;28;20717;-52
2023/07/05 09:57:25;;;;;;;15.98;4.55;;;12.80;99.90;;;;;;4945360;28;20035;-53
2023/07/05 09:59:54;;;;;;;13.65;2.78;;;12.60;99.90;;;;;;4946403;28;20066;-56
2023/07/05 10:02:28;;;;;;;11.70;2.80;;;12.90;99.90;;;;;;4945702;28;20031;-54
2023/07/05 10:04:58;;;;;;;11.95;2.85;;;12.70;99.90;;;;;;4945326;28;20086;-55
2023/07/05 10:07:27;;;;;;;11.65;4.05;;;12.80;99.90;;;;;;4946313;28;20082;-53
2023/07/05 10:10:00;;;;;;;14.70;3.95;;;12.90;99.90;;;;;;4946828;28;20043;-51
2023/07/05 10:12:35;;;;;;;13.85;2.85;;;13.00;99.90;;;;;;4945496;28;20043;-51
2023/07/05 10:15:01;;;;;;;18.30;2.83;;;12.80;99.90;;;;;;4945107;28;20063;-56
2023/07/05 10:17:49;;;;;;;12.70;2.80;;;12.90;99.90;;;;;;4950480;28;20037;-51
2023/07/05 10:20:23;;;;;;;9.95;2.88;;;12.70;99.90;;;;;;4951502;28;20031;-53
2023/07/05 10:23:13;;;;;;;11.90;2.90;;;12.70;99.90;;;;;;4952244;28;20090;-53
2023/07/05 10:25:41;;;;;;;19.27;2.70;;;12.80;99.90;;;;;;4958985;28;20118;-53
2023/07/05 10:28:11;;;;;;;15.02;2.78;;;12.60;99.90;;;;;;4954163;28;20126;-55
2023/07/05 10:30:55;;;;;;;20.42;3.50;;;12.70;99.90;;;;;;4953580;28;20405;-54
2023/07/05 10:33:27;;;;;;;17.13;4.88;;;12.60;99.90;;;;;;4952008;28;20042;-53
2023/07/05 10:36:04;;;;;;;11.35;2.78;;;12.90;99.90;;;;;;4952608;28;20047;-56
2023/07/05 10:38:44;;;;;;;16.85;3.08;;;12.60;99.90;;;;;;4952287;28;20047;-54
2023/07/05 10:41:26;;;;;;;16.48;4.35;;;12.60;99.90;;;;;;4952991;28;20098;-56
2023/07/05 10:44:24;;;;;;;11.77;3.20;;;12.60;99.90;;;;;;4952714;28;20119;-54
2023/07/05 10:46:51;;;;;;;16.83;4.93;;;12.60;99.90;;;;;;4951946;28;20035;-54
2023/07/05 10:49:19;;;;;;;19.95;3.42;;;12.90;99.90;;;;;;4951292;28;20395;-53
2023/07/05 10:51:52;;;;;;;20.33;5.50;;;12.80;99.90;;;;;;4957468;28;20046;-52
2023/07/05 10:54:23;;;;;;;21.65;5.38;;;12.90;99.90;;;;;;4933638;28;20487;-53
2023/07/05 10:56:49;;;;;;;13.55;3.58;;;12.70;99.90;;;;;;4954076;28;20034;-52
2023/07/05 10:59:17;;;;;;;12.02;2.45;;;12.70;99.90;;;;;;4954142;29;20118;-52
2023/07/05 11:01:54;;;;;;;14.27;3.50;;;12.50;99.90;;;;;;4963695;28;20062;-58
2023/07/05 11:04:24;;;;;;;6.65;1.73;;;12.70;99.90;;;;;;4972860;28;20058;-51
2023/07/05 11:06:52;;;;;;;8.13;2.58;;;12.80;99.90;;;;;;4973366;28;20057;-53
2023/07/05 11:09:18;;;;;;;11.70;2.70;;;12.80;99.90;;;;;;4973466;28;20121;-51
2023/07/05 11:11:57;;;;;;;12.05;3.22;;;12.40;99.90;;;;;;4973522;28;20519;-52
2023/07/05 11:14:28;;;;;;;13.48;3.75;;;12.80;99.90;;;;;;4973266;28;20050;-53
2023/07/05 11:16:56;;;;;;;9.23;2.38;;;12.70;99.90;;;;;;4973249;28;20147;-52
2023/07/05 11:19:29;;;;;;;9.10;1.95;;;12.70;99.90;;;;;;4973535;28;20130;-51
2023/07/05 11:22:01;;;;;;;13.38;2.00;;;12.50;99.90;;;;;;4973128;28;20065;-55
2023/07/05 11:24:38;;;;;;;8.00;1.67;;;12.50;99.90;;;;;;4973147;28;20069;-54
2023/07/05 11:27:23;;;;;;;13.90;2.90;;;12.50;99.90;;;;;;4973149;28;20130;-53
2023/07/05 11:29:51;;;;;;;8.50;1.83;;;12.80;99.90;;;;;;4973337;28;20052;-55
2023/07/05 11:32:19;;;;;;;12.20;2.13;;;12.70;99.90;;;;;;4972881;28;20102;-52
2023/07/05 11:34:50;;;;;;;11.68;2.33;;;12.70;99.90;;;;;;4972776;28;20047;-56
2023/07/05 11:37:15;;;;;;;12.20;2.38;;;12.70;99.90;;;;;;4969751;28;20482;-54
2023/07/05 11:39:43;;;;;;;16.40;3.13;;;12.50;99.90;;;;;;4953787;28;20049;-52
2023/07/05 11:42:15;;;;;;;14.10;2.72;;;12.90;99.90;;;;;;4953763;28;20039;-55
2023/07/05 11:44:45;;;;;;;16.60;4.30;;;12.60;99.90;;;;;;4953845;28;20050;-53
2023/07/05 11:47:30;;;;;;;13.27;2.70;;;13.00;99.90;;;;;;4953758;28;20047;-55
2023/07/05 11:50:07;;;;;;;12.32;3.13;;;12.70;99.90;;;;;;4953502;28;20122;-54
2023/07/05 11:52:35;;;;;;;14.10;4.03;;;12.70;99.90;;;;;;4953734;28;20043;-55
2023/07/05 11:55:04;;;;;;;12.02;4.05;;;12.80;99.90;;;;;;4953278;28;20078;-53
2023/07/05 11:57:57;;;;;;;8.90;2.42;;;13.10;99.90;;;;;;4953535;28;20416;-53
2023/07/05 12:00:49;;;;;;;8.63;2.35;;;12.90;99.90;;;;;;4953714;28;20035;-53
2023/07/05 12:03:22;;;;;;;13.70;2.70;;;13.10;99.90;;;;;;4951737;28;20130;-53
2023/07/05 12:06:06;;;;;;;13.07;3.17;;;12.80;99.90;;;;;;4953505;28;20559;-52
2023/07/05 12:08:39;;;;;;;18.92;3.00;;;12.90;99.90;;;;;;4953431;28;20043;-55
2023/07/05 12:11:04;;;;;;;13.80;4.13;;;12.90;99.90;;;;;;4953567;28;20051;-51
2023/07/05 12:13:33;;;;;;;13.57;4.22;;;12.90;99.90;;;;;;4953205;28;20394;-52
2023/07/05 12:16:00;;;;;;;14.38;4.07;;;13.00;99.90;;;;;;4953017;28;20039;-51
2023/07/05 12:18:28;;;;;;;14.32;3.92;;;13.20;99.90;;;;;;4935902;29;20058;-53
2023/07/05 12:20:55;;;;;;;16.48;3.53;;;13.30;99.90;;;;;;4952276;28;20035;-55
2023/07/05 12:23:23;;;;;;;14.07;5.00;;;13.00;99.90;;;;;;4952590;28;20460;-54
2023/07/05 12:25:57;;;;;;;18.15;4.90;;;13.10;99.90;;;;;;4952519;28;20043;-54
2023/07/05 12:28:28;;;;;;;14.80;3.58;;;13.10;99.90;;;;;;4951251;28;20039;-55
2023/07/05 12:30:59;;;;;;;14.98;4.95;;;13.30;99.90;;;;;;4952409;28;20039;-51
2023/07/05 12:33:27;;;;;;;13.10;3.15;;;13.40;99.90;;;;;;4950853;28;20038;-52
2023/07/05 12:36:14;;;;;;;13.35;3.25;;;13.40;99.90;;;;;;4952072;28;20039;-53
2023/07/05 12:38:42;;;;;;;16.42;3.70;;;13.30;99.90;;;;;;4952026;28;20388;-54
2023/07/05 12:41:26;;;;;;;15.25;3.95;;;13.70;99.90;;;;;;4930303;28;20043;-51
2023/07/05 12:44:00;;;;;;;13.15;3.75;;;13.70;99.90;;;;;;4952735;28;20035;-56
2023/07/05 12:46:28;;;;;;;17.38;5.38;;;13.40;99.90;;;;;;4951819;28;20047;-54
2023/07/05 12:48:54;;;;;;;12.35;3.58;;;13.80;99.90;;;;;;4930986;28;20479;-57
2023/07/05 12:51:23;;;;;;;15.30;3.33;;;14.00;99.90;;;;;;4952496;28;20047;-51
2023/07/05 12:53:51;;;;;;;17.33;3.17;;;13.60;99.90;;;;;;4952225;28;20039;-54